Terminal Aerodrome Forecast
Issued by NWS

Home | Current Version | Previous Version | Text Only | Print | Product List | Glossary On
Versions: 1 2 3 4 5 6 7 8 9 10 11 12 13 14 15 16 17 18 19 20 21
000
FTUS43 KIND 291100
TAFBMG
TAF
KBMG 291130Z 2912/3012 16008KT P6SM FEW080 BKN250
     FM291500 18009KT P6SM SCT030 SCT080 BKN250
     FM291800 18011KT P6SM VCTS SCT030CB BKN080
     FM300200 19006KT P6SM BKN080
      AMD LTD TO CLD VIS AND WIND TIL 291300=

USA.gov is the U.S. government's official web portal to all federal, state and local government web resources and services.